John H Macmillan Jr — WDB9907 — position and weather

sailwx.info

Track history (hours):
 
Tides and Currents Weather Stations Pressure Air Temp Water Temp Dewpoint Dewpoint Depression Visibility Wind Speed Wind Dir Waves Ship Positions

John H Macmillan Jr

Owner: American River Transportation Company, St Louis, MO. More information available from US FCC via Universal Licensing System and Coast Guard Vessel Documentation Center.

Last reported at 2017-May-26 00:17 UTC. Time now 2017-May-26 07:23 UTC.
Position N 32°08' W 091°06'.

Length 55 m.

Type: Ship (hazmat cat B). MMSI: 366984920.

Date/timePositionNaut miles runAvg speedWind from/ knotsBaromVisibWave heightAir tempDewpointWater temp
2017-May-26 00:17N 32°08' W 091°06'3 9.6
2017-May-26 00:00N 32°07' W 091°03'4 8.3
2017-May-25 23:30N 32°11' W 090°60'510.4
2017-May-25 23:00N 32°16' W 090°58'5 9.9
2017-May-25 22:30N 32°19' W 090°54'2 4.5
2017-May-25 22:00N 32°21' W 090°56'1 1.4
2017-May-25 21:30N 32°21' W 090°57'0 0.0
2017-May-25 21:00N 32°21' W 090°57'0 0.3
2017-May-25 20:30N 32°21' W 090°57'2 4.4
2017-May-25 20:00N 32°21' W 090°59'3 5.7
2017-May-25 19:30N 32°24' W 090°60'3 5.4
2017-May-25 19:00N 32°26' W 091°02'3 6.9
2017-May-25 18:30N 32°27' W 091°06'6 8.6
2017-May-25 17:48N 32°33' W 091°06'  
2017-May-18 12:07N 32°40' W 091°07'4 6.9
2017-May-18 11:35N 32°37' W 091°09'1 7.1
2017-May-18 11:30N 32°36' W 091°08'3 5.4
2017-May-18 11:00N 32°34' W 091°07'4 7.1
2017-May-18 10:30N 32°30' W 091°07'3 6.3
2017-May-18 10:00N 32°28' W 091°05'4 7.6
2017-May-18 09:30N 32°26' W 091°01'3 6.3
2017-May-18 09:00N 32°23' W 091°00'3 5.6
2017-May-18 08:30N 32°21' W 090°58'3 5.6
2017-May-18 08:00N 32°20' W 090°55'2 3.8
2017-May-18 07:30N 32°18' W 090°55'3 5.5
2017-May-18 07:00N 32°16' W 090°57'4 7.3
2017-May-18 06:30N 32°13' W 090°59'3 6.7
2017-May-18 06:00N 32°09' W 090°60'5 5.6
2017-May-18 05:06N 32°08' W 091°05'1 6.3
2017-May-18 05:00N 32°07' W 091°06'4 6.6
2017-May-18 04:23N 32°03' W 091°05'  
Track history (hours):
 
Tides and Currents Weather Stations Pressure Air Temp Water Temp Dewpoint Dewpoint Depression Visibility Wind Speed Wind Dir Waves Ship Positions

John H Macmillan Jr

Owner: American River Transportation Company, St Louis, MO. More information available from US FCC via Universal Licensing System and Coast Guard Vessel Documentation Center.

Last reported at 2017-May-26 00:17 UTC. Time now 2017-May-26 07:23 UTC.
Position N 32°08' W 091°06'.

Length 55 m.

Type: Ship (hazmat cat B). MMSI: 366984920.

Date/timePositionNaut miles runAvg speedWind from/ knotsBaromVisibWave heightAir tempDewpointWater temp
2017-May-26 00:17N 32°08' W 091°06'3 9.6
2017-May-26 00:00N 32°07' W 091°03'4 8.3
2017-May-25 23:30N 32°11' W 090°60'510.4
2017-May-25 23:00N 32°16' W 090°58'5 9.9
2017-May-25 22:30N 32°19' W 090°54'2 4.5
2017-May-25 22:00N 32°21' W 090°56'1 1.4
2017-May-25 21:30N 32°21' W 090°57'0 0.0
2017-May-25 21:00N 32°21' W 090°57'0 0.3
2017-May-25 20:30N 32°21' W 090°57'2 4.4
2017-May-25 20:00N 32°21' W 090°59'3 5.7
2017-May-25 19:30N 32°24' W 090°60'3 5.4
2017-May-25 19:00N 32°26' W 091°02'3 6.9
2017-May-25 18:30N 32°27' W 091°06'6 8.6
2017-May-25 17:48N 32°33' W 091°06'  
2017-May-18 12:07N 32°40' W 091°07'4 6.9
2017-May-18 11:35N 32°37' W 091°09'1 7.1
2017-May-18 11:30N 32°36' W 091°08'3 5.4
2017-May-18 11:00N 32°34' W 091°07'4 7.1
2017-May-18 10:30N 32°30' W 091°07'3 6.3
2017-May-18 10:00N 32°28' W 091°05'4 7.6
2017-May-18 09:30N 32°26' W 091°01'3 6.3
2017-May-18 09:00N 32°23' W 091°00'3 5.6
2017-May-18 08:30N 32°21' W 090°58'3 5.6
2017-May-18 08:00N 32°20' W 090°55'2 3.8
2017-May-18 07:30N 32°18' W 090°55'3 5.5
2017-May-18 07:00N 32°16' W 090°57'4 7.3
2017-May-18 06:30N 32°13' W 090°59'3 6.7
2017-May-18 06:00N 32°09' W 090°60'5 5.6
2017-May-18 05:06N 32°08' W 091°05'1 6.3
2017-May-18 05:00N 32°07' W 091°06'4 6.6
2017-May-18 04:23N 32°03' W 091°05'  

Dump ship's entire track history